| time (UTC) | temp C | wind direction | speed KPH | gust KPH | rain 1hr cm | rain 24hr cm | rain mn cm | humidity % | barometer mb |
| 20260509055002 | 6 | 158 | 0.0 | 6.4 | 0.00 | 0.00 | 0.00 | 77 | 1018.8 |
| 20260509054452 | 6 | 135 | 3.2 | 6.4 | 0.00 | 0.00 | 0.00 | 78 | 1018.8 |
| 20260509053432 | 7 | 90 | 3.2 | 6.4 | 0.00 | 0.00 | 0.00 | 77 | 1018.6 |
| 20260509052922 | 7 | 158 | 3.2 | 6.4 | 0.00 | 0.00 | 0.00 | 76 | 1018.8 |
| 20260509052412 | 7 | 158 | 3.2 | 6.4 | 0.00 | 0.00 | 0.00 | 76 | 1018.6 |
| 20260509051902 | 7 | 135 | 3.2 | 6.4 | 0.00 | 0.00 | 0.00 | 76 | 1018.6 |
| 20260509051352 | 7 | 135 | 3.2 | 6.4 | 0.00 | 0.00 | 0.00 | 76 | 1018.3 |
| 20260509050332 | 7 | 113 | 1.6 | 6.4 | 0.00 | 0.00 | 0.00 | 74 | 1018.2 |
| 20260509045821 | 7 | 23 | 4.8 | 6.4 | 0.00 | 0.00 | 0.00 | 75 | 1018.2 |
| 20260509045311 | 7 | 113 | 1.6 | 9.7 | 0.00 | 0.00 | 0.00 | 76 | 1018.4 |
| 20260509044253 | 7 | 0 | 4.8 | 11.3 | 0.00 | 0.00 | 0.00 | 77 | 1018.5 |
| 20260509043740 | 7 | 338 | 4.8 | 11.3 | 0.00 | 0.00 | 0.00 | 77 | 1018.1 |
| 20260509043231 | 7 | 0 | 3.2 | 11.3 | 0.00 | 0.00 | 0.00 | 77 | 1018.1 |
| 20260509042720 | 8 | 68 | 6.4 | 12.9 | 0.00 | 0.00 | 0.00 | 75 | 1018.0 |
| 20260509041700 | 8 | 0 | 6.4 | 14.5 | 0.00 | 0.00 | 0.00 | 75 | 1017.9 |
| 20260509041149 | 8 | 338 | 4.8 | 14.5 | 0.00 | 0.00 | 0.00 | 75 | 1017.6 |
| 20260509040639 | 7 | 315 | 9.7 | 17.7 | 0.00 | 0.00 | 0.00 | 74 | 1017.4 |
| 20260509035619 | 8 | 293 | 14.5 | 20.9 | 0.00 | 0.00 | 0.00 | 77 | 1017.2 |
| 20260509035110 | 7 | 135 | 0.0 | 9.7 | 0.00 | 0.00 | 0.00 | 75 | 1017.1 |
| 20260509034049 | 7 | 135 | 3.2 | 6.4 | 0.00 | 0.00 | 0.00 | 74 | 1017.0 |
| 20260509033539 | 7 | 68 | 0.0 | 6.4 | 0.00 | 0.00 | 0.00 | 75 | 1017.2 |
| 20260509033028 | 7 | 68 | 0.0 | 9.7 | 0.00 | 0.00 | 0.00 | 75 | 1017.4 |
| 20260509032519 | 7 | 68 | 3.2 | 9.7 | 0.00 | 0.00 | 0.00 | 75 | 1017.0 |
| 20260509032009 | 7 | 113 | 3.2 | 6.4 | 0.00 | 0.00 | 0.00 | 75 | 1017.1 |
| 20260509031459 | 6 | 113 | 1.6 | 6.4 | 0.00 | 0.00 | 0.00 | 75 | 1017.4 |
| 20260509030948 | 6 | 113 | 3.2 | 6.4 | 0.00 | 0.00 | 0.00 | 75 | 1017.3 |
| 20260509030439 | 7 | 135 | 3.2 | 9.7 | 0.00 | 0.00 | 0.00 | 75 | 1017.4 |
| 20260509025928 | 7 | 158 | 4.8 | 9.7 | 0.00 | 0.00 | 0.00 | 75 | 1017.7 |
| 20260509025418 | 7 | 180 | 1.6 | 17.7 | 0.00 | 0.00 | 0.00 | 76 | 1017.8 |
| 20260509024908 | 6 | 180 | 6.4 | 20.9 | 0.00 | 0.00 | 0.00 | 75 | 1017.4 |
| 20260509023848 | 6 | 158 | 6.4 | 17.7 | 0.00 | 0.00 | 0.00 | 74 | 1016.6 |
| 20260509022827 | 6 | 135 | 8.0 | 22.5 | 0.00 | 0.00 | 0.00 | 74 | 1016.3 |
| 20260509020748 | 7 | 158 | 3.2 | 17.7 | 0.00 | 0.00 | 0.00 | 69 | 1015.5 |
| 20260509020237 | 7 | 203 | 6.4 | 17.7 | 0.00 | 0.00 | 0.00 | 67 | 1015.4 |
| 20260509015727 | 8 | 113 | 6.4 | 20.9 | 0.00 | 0.00 | 0.00 | 65 | 1015.7 |
| 20260509014707 | 9 | 135 | 6.4 | 17.7 | 0.00 | 0.00 | 0.00 | 59 | 1015.3 |
| 20260509014157 | 10 | 113 | 8.0 | 17.7 | 0.00 | 0.00 | 0.00 | 56 | 1014.7 |
| 20260509013647 | 10 | 113 | 3.2 | 12.9 | 0.00 | 0.00 | 0.00 | 56 | 1014.1 |
| 20260509013137 | 9 | 203 | 3.2 | 6.4 | 0.00 | 0.00 | 0.00 | 59 | 1014.5 |
| 20260509012626 | 9 | 135 | 1.6 | 6.4 | 0.00 | 0.00 | 0.00 | 59 | 1014.4 |
| 20260509011607 | 10 | 135 | 1.6 | 11.3 | 0.00 | 0.00 | 0.00 | 57 | 1013.8 |
| 20260509011056 | 10 | 113 | 3.2 | 20.9 | 0.00 | 0.00 | 0.00 | 57 | 1013.8 |
| 20260509010546 | 10 | 135 | 6.4 | 20.9 | 0.00 | 0.00 | 0.00 | 57 | 1013.5 |
| 20260509010037 | 10 | 90 | 3.2 | 12.9 | 0.00 | 0.00 | 0.00 | 56 | 1013.4 |
| 20260509005526 | 10 | 113 | 1.6 | 11.3 | 0.00 | 0.00 | 0.00 | 58 | 1013.5 |
| 20260509005016 | 9 | 158 | 6.4 | 20.9 | 0.00 | 0.00 | 0.00 | 59 | 1013.2 |
| 20260509004506 | 10 | 225 | 11.3 | 20.9 | 0.00 | 0.00 | 0.00 | 57 | 1012.8 |
| 20260509003956 | 11 | 180 | 3.2 | 14.5 | 0.00 | 0.00 | 0.00 | 57 | 1013.1 |
| 20260509002425 | 12 | 90 | 12.9 | 20.9 | 0.00 | 0.00 | 0.00 | 51 | 1011.8 |
| 20260509001915 | 12 | 90 | 9.7 | 22.5 | 0.00 | 0.00 | 0.00 | 51 | 1011.8 |
| 20260509000855 | 12 | 90 | 6.4 | 17.7 | 0.00 | 0.00 | 0.00 | 52 | 1011.7 |
| 20260509000345 | 12 | 90 | 12.9 | 20.9 | 0.00 | 0.00 | 0.00 | 50 | 1011.1 |
| 20260508234814 | 12 | 68 | 17.7 | 24.1 | 0.00 | 0.00 | 0.00 | 49 | 1010.6 |
| 20260508234304 | 12 | 90 | 12.9 | 24.1 | 0.00 | 0.00 | 0.00 | 48 | 1010.2 |
| 20260508233754 | 12 | 90 | 12.9 | 24.1 | 0.00 | 0.00 | 0.00 | 49 | 1009.9 |
| 20260508233244 | 12 | 68 | 12.9 | 22.5 | 0.00 | 0.00 | 0.00 | 49 | 1009.9 |
| 20260508232734 | 12 | 68 | 17.7 | 22.5 | 0.00 | 0.00 | 0.00 | 49 | 1009.7 |
| 20260508232224 | 12 | 68 | 11.3 | 22.5 | 0.00 | 0.00 | 0.00 | 49 | 1009.6 |
| 20260508231713 | 12 | 68 | 16.1 | 22.5 | 0.00 | 0.00 | 0.00 | 49 | 1009.6 |
| 20260508231204 | 12 | 90 | 11.3 | 22.5 | 0.00 | 0.00 | 0.00 | 48 | 1009.5 |
| 20260508230653 | 12 | 68 | 12.9 | 22.5 | 0.00 | 0.00 | 0.00 | 47 | 1009.2 |
| 20260508230143 | 12 | 90 | 12.9 | 24.1 | 0.00 | 0.00 | 0.00 | 48 | 1009.4 |
| 20260508225633 | 13 | 68 | 12.9 | 27.4 | 0.00 | 0.00 | 0.00 | 48 | 1008.9 |
| 20260508225123 | 13 | 68 | 16.1 | 27.4 | 0.00 | 0.00 | 0.00 | 47 | 1008.8 |
| 20260508224613 | 13 | 68 | 19.3 | 27.4 | 0.00 | 0.00 | 0.00 | 48 | 1008.7 |
| 20260508224102 | 13 | 68 | 17.7 | 29.0 | 0.00 | 0.00 | 0.00 | 47 | 1008.9 |
| 20260508223552 | 13 | 90 | 8.0 | 29.0 | 0.00 | 0.00 | 0.00 | 46 | 1008.9 |
| 20260508223042 | 13 | 90 | 17.7 | 25.7 | 0.00 | 0.00 | 0.00 | 46 | 1008.9 |
| 20260508222532 | 13 | 68 | 14.5 | 32.2 | 0.00 | 0.00 | 0.00 | 46 | 1008.6 |
| 20260508221512 | 13 | 68 | 17.7 | 32.2 | 0.00 | 0.00 | 0.00 | 45 | 1008.7 |
| 20260508221002 | 13 | 45 | 12.9 | 25.7 | 0.00 | 0.00 | 0.00 | 46 | 1008.5 |
| 20260508220451 | 13 | 68 | 14.5 | 25.7 | 0.00 | 0.00 | 0.00 | 46 | 1008.5 |
| 20260508215432 | 13 | 113 | 14.5 | 22.5 | 0.00 | 0.00 | 0.00 | 44 | 1008.6 |
| 20260508214412 | 13 | 68 | 11.3 | 24.1 | 0.00 | 0.00 | 0.00 | 44 | 1008.2 |
| 20260508213901 | 14 | 90 | 19.3 | 27.4 | 0.00 | 0.00 | 0.00 | 43 | 1008.0 |
| 20260508213351 | 14 | 68 | 17.7 | 27.4 | 0.00 | 0.00 | 0.00 | 44 | 1008.3 |
| 20260508212841 | 14 | 90 | 17.7 | 27.4 | 0.00 | 0.00 | 0.00 | 42 | 1008.2 |
| 20260508212331 | 14 | 68 | 16.1 | 24.1 | 0.00 | 0.00 | 0.00 | 43 | 1008.5 |
| 20260508211822 | 15 | 68 | 17.7 | 24.1 | 0.00 | 0.00 | 0.00 | 42 | 1007.9 |
| 20260508211311 | 15 | 68 | 16.1 | 22.5 | 0.00 | 0.00 | 0.00 | 42 | 1008.2 |
| 20260508210802 | 15 | 68 | 17.7 | 25.7 | 0.00 | 0.00 | 0.00 | 42 | 1008.2 |
| 20260508210250 | 15 | 68 | 12.9 | 25.7 | 0.00 | 0.00 | 0.00 | 41 | 1008.3 |
| 20260508205741 | 15 | 68 | 12.9 | 24.1 | 0.00 | 0.00 | 0.00 | 42 | 1008.2 |
| 20260508205230 | 15 | 90 | 12.9 | 24.1 | 0.00 | 0.00 | 0.00 | 41 | 1008.2 |
| 20260508204720 | 15 | 68 | 14.5 | 24.1 | 0.00 | 0.00 | 0.00 | 40 | 1008.3 |
| 20260508204210 | 15 | 68 | 14.5 | 24.1 | 0.00 | 0.00 | 0.00 | 40 | 1008.3 |
| 20260508203700 | 15 | 68 | 17.7 | 22.5 | 0.00 | 0.00 | 0.00 | 40 | 1008.4 |
| 20260508203150 | 15 | 68 | 16.1 | 25.7 | 0.00 | 0.00 | 0.00 | 40 | 1008.1 |
| 20260508202639 | 15 | 90 | 16.1 | 29.0 | 0.00 | 0.00 | 0.00 | 39 | 1008.3 |
| 20260508202130 | 15 | 45 | 14.5 | 32.2 | 0.00 | 0.00 | 0.00 | 40 | 1008.3 |
| 20260508201620 | 15 | 68 | 14.5 | 32.2 | 0.00 | 0.00 | 0.00 | 39 | 1008.2 |
| 20260508200559 | 15 | 90 | 20.9 | 35.4 | 0.00 | 0.00 | 0.00 | 39 | 1008.2 |
| 20260508200049 | 15 | 68 | 24.1 | 35.4 | 0.00 | 0.00 | 0.00 | 39 | 1008.1 |
| 20260508195539 | 16 | 68 | 17.7 | 33.8 | 0.00 | 0.00 | 0.00 | 39 | 1008.2 |
| 20260508195029 | 16 | 68 | 17.7 | 29.0 | 0.00 | 0.00 | 0.00 | 39 | 1008.0 |
| 20260508194519 | 16 | 68 | 12.9 | 27.4 | 0.00 | 0.00 | 0.00 | 38 | 1008.1 |
| 20260508192948 | 16 | 45 | 14.5 | 27.4 | 0.00 | 0.00 | 0.00 | 39 | 1008.3 |
| 20260508192438 | 16 | 68 | 16.1 | 27.4 | 0.00 | 0.00 | 0.00 | 38 | 1008.0 |
| 20260508191928 | 16 | 68 | 16.1 | 27.4 | 0.00 | 0.00 | 0.00 | 39 | 1008.1 |
| 20260508191418 | 16 | 90 | 14.5 | 25.7 | 0.00 | 0.00 | 0.00 | 37 | 1008.0 |
| 20260508190909 | 16 | 45 | 11.3 | 27.4 | 0.00 | 0.00 | 0.00 | 38 | 1008.4 |
| 20260508185338 | 16 | 68 | 12.9 | 29.0 | 0.00 | 0.00 | 0.00 | 39 | 1008.0 |
| 20260508184317 | 16 | 68 | 24.1 | 32.2 | 0.00 | 0.00 | 0.00 | 37 | 1008.1 |
| 20260508183808 | 16 | 90 | 16.1 | 29.0 | 0.00 | 0.00 | 0.00 | 38 | 1008.2 |
| 20260508182748 | 16 | 68 | 17.7 | 27.4 | 0.00 | 0.00 | 0.00 | 38 | 1008.3 |
| 20260508182238 | 16 | 68 | 14.5 | 29.0 | 0.00 | 0.00 | 0.00 | 37 | 1008.5 |
| 20260508181727 | 16 | 68 | 17.7 | 29.0 | 0.00 | 0.00 | 0.00 | 38 | 1008.3 |
| 20260508181217 | 16 | 90 | 14.5 | 35.4 | 0.00 | 0.00 | 0.00 | 38 | 1008.5 |
| 20260508180706 | 16 | 113 | 14.5 | 35.4 | 0.00 | 0.00 | 0.00 | 38 | 1008.6 |
| 20260508180157 | 16 | 68 | 12.9 | 27.4 | 0.00 | 0.00 | 0.00 | 39 | 1008.6 |
| 20260508175646 | 16 | 45 | 12.9 | 27.4 | 0.00 | 0.00 | 0.00 | 37 | 1008.9 |
| 20260508175136 | 16 | 68 | 16.1 | 32.2 | 0.00 | 0.00 | 0.00 | 37 | 1008.8 |
| 20260508174626 | 16 | 68 | 17.7 | 33.8 | 0.00 | 0.00 | 0.00 | 37 | 1009.0 |
| 20260508174116 | 16 | 68 | 19.3 | 33.8 | 0.00 | 0.00 | 0.00 | 37 | 1008.8 |
| 20260508173607 | 16 | 68 | 24.1 | 32.2 | 0.00 | 0.00 | 0.00 | 38 | 1009.0 |
| 20260508173056 | 16 | 68 | 16.1 | 27.4 | 0.00 | 0.00 | 0.00 | 37 | 1009.4 |
| 20260508172547 | 16 | 90 | 14.5 | 29.0 | 0.00 | 0.00 | 0.00 | 38 | 1009.2 |
| 20260508172036 | 16 | 68 | 22.5 | 29.0 | 0.00 | 0.00 | 0.00 | 38 | 1009.5 |
| 20260508171527 | 16 | 68 | 19.3 | 27.4 | 0.00 | 0.00 | 0.00 | 39 | 1009.6 |
| 20260508171016 | 15 | 68 | 19.3 | 27.4 | 0.00 | 0.00 | 0.00 | 37 | 1009.8 |
| 20260508170505 | 15 | 68 | 24.1 | 27.4 | 0.00 | 0.00 | 0.00 | 39 | 1009.9 |
| 20260508165956 | 15 | 68 | 17.7 | 27.4 | 0.00 | 0.00 | 0.00 | 39 | 1010.0 |
| 20260508165445 | 16 | 90 | 17.7 | 24.1 | 0.00 | 0.00 | 0.00 | 38 | 1010.0 |
| 20260508164935 | 15 | 68 | 17.7 | 24.1 | 0.00 | 0.00 | 0.00 | 38 | 1010.3 |
| 20260508164425 | 16 | 68 | 16.1 | 24.1 | 0.00 | 0.00 | 0.00 | 37 | 1010.4 |
| 20260508163914 | 15 | 68 | 14.5 | 24.1 | 0.00 | 0.00 | 0.00 | 38 | 1010.5 |
| 20260508163405 | 16 | 68 | 8.0 | 17.7 | 0.00 | 0.00 | 0.00 | 38 | 1010.7 |
| 20260508162857 | 16 | 68 | 12.9 | 17.7 | 0.00 | 0.00 | 0.00 | 38 | 1010.5 |
| 20260508162345 | 16 | 45 | 8.0 | 17.7 | 0.00 | 0.00 | 0.00 | 38 | 1010.8 |
| 20260508161835 | 16 | 45 | 12.9 | 17.7 | 0.00 | 0.00 | 0.00 | 37 | 1011.0 |
| 20260508161325 | 16 | 68 | 12.9 | 17.7 | 0.00 | 0.00 | 0.00 | 38 | 1011.1 |
| 20260508160814 | 16 | 68 | 9.7 | 14.5 | 0.00 | 0.00 | 0.00 | 37 | 1011.1 |
| 20260508155754 | 16 | 68 | 8.0 | 12.9 | 0.00 | 0.00 | 0.00 | 36 | 1011.4 |
| 20260508154734 | 16 | 293 | 3.2 | 6.4 | 0.00 | 0.00 | 0.00 | 40 | 1011.3 |
| 20260508154224 | 15 | 293 | 3.2 | 6.4 | 0.00 | 0.00 | 0.00 | 44 | 1011.5 |
| 20260508153203 | 15 | 315 | 1.6 | 6.4 | 0.00 | 0.00 | 0.00 | 40 | 1011.7 |
| 20260508152654 | 15 | 270 | 3.2 | 6.4 | 0.00 | 0.00 | 0.00 | 43 | 1011.9 |
| 20260508152142 | 15 | 270 | 3.2 | 6.4 | 0.00 | 0.00 | 0.00 | 42 | 1011.7 |
| 20260508151633 | 15 | 293 | 3.2 | 6.4 | 0.00 | 0.00 | 0.00 | 39 | 1011.9 |
| 20260508150613 | 14 | 293 | 1.6 | 6.4 | 0.00 | 0.00 | 0.00 | 40 | 1012.2 |
| 20260508145552 | 13 | 315 | 3.2 | 6.4 | 0.00 | 0.00 | 0.00 | 42 | 1012.2 |
| 20260508145042 | 13 | 0 | 3.2 | 6.4 | 0.00 | 0.00 | 0.00 | 41 | 1012.4 |
| 20260508144022 | 12 | 293 | 1.6 | 6.4 | 0.00 | 0.00 | 0.00 | 45 | 1012.7 |
| 20260508143002 | 12 | 315 | 3.2 | 6.4 | 0.00 | 0.00 | 0.00 | 44 | 1012.8 |
| 20260508142452 | 13 | 338 | 1.6 | 6.4 | 0.00 | 0.00 | 0.00 | 40 | 1012.9 |
| 20260508141942 | 13 | 23 | 0.0 | 6.4 | 0.00 | 0.00 | 0.00 | 41 | 1012.8 |
| 20260508141431 | 12 | 338 | 1.6 | 6.4 | 0.00 | 0.00 | 0.00 | 48 | 1012.9 |
| 20260508140921 | 12 | 293 | 0.0 | 6.4 | 0.00 | 0.00 | 0.00 | 50 | 1013.1 |
| 20260508140411 | 11 | 293 | 3.2 | 6.4 | 0.00 | 0.00 | 0.00 | 54 | 1013.2 |
| 20260508135901 | 11 | 293 | 1.6 | 6.4 | 0.00 | 0.00 | 0.00 | 54 | 1013.2 |
| 20260508135353 | 10 | 293 | 6.4 | 6.4 | 0.00 | 0.00 | 0.00 | 53 | 1013.4 |
| 20260508134841 | 11 | 338 | 3.2 | 9.7 | 0.00 | 0.00 | 0.00 | 50 | 1013.4 |
| 20260508134332 | 9 | 293 | 6.4 | 9.7 | 0.00 | 0.00 | 0.00 | 56 | 1013.3 |
| 20260508133821 | 10 | 315 | 3.2 | 9.7 | 0.00 | 0.00 | 0.00 | 55 | 1013.3 |
| 20260508133311 | 10 | 315 | 4.8 | 9.7 | 0.00 | 0.00 | 0.00 | 55 | 1013.2 |
| 20260508132801 | 9 | 293 | 1.6 | 9.7 | 0.00 | 0.00 | 0.00 | 55 | 1013.3 |
| 20260508131741 | 9 | 225 | 3.2 | 9.7 | 0.00 | 0.00 | 0.00 | 59 | 1013.3 |
| 20260508131231 | 8 | 338 | 6.4 | 9.7 | 0.00 | 0.00 | 0.00 | 60 | 1013.1 |
| 20260508130721 | 8 | 338 | 0.0 | 6.4 | 0.00 | 0.00 | 0.00 | 58 | 1013.3 |
| 20260508130210 | 7 | 338 | 3.2 | 6.4 | 0.00 | 0.00 | 0.00 | 58 | 1013.0 |
| 20260508125151 | 7 | 23 | 6.4 | 11.3 | 0.00 | 0.00 | 0.00 | 61 | 1013.5 |
| 20260508124640 | 7 | 338 | 3.2 | 6.4 | 0.00 | 0.00 | 0.00 | 63 | 1013.6 |
| 20260508124130 | 7 | 338 | 3.2 | 6.4 | 0.00 | 0.00 | 0.00 | 66 | 1013.3 |
| 20260508123619 | 7 | 23 | 0.0 | 3.2 | 0.00 | 0.00 | 0.00 | 63 | 1013.3 |
| 20260508123110 | 7 | 0 | 1.6 | 6.4 | 0.00 | 0.00 | 0.00 | 61 | 1013.3 |
| 20260508122559 | 6 | 0 | 0.0 | 6.4 | 0.00 | 0.00 | 0.00 | 67 | 1013.2 |
| 20260508122049 | 6 | 23 | 1.6 | 6.4 | 0.00 | 0.00 | 0.00 | 71 | 1013.4 |
| 20260508121540 | 5 | 90 | 3.2 | 6.4 | 0.00 | 0.00 | 0.00 | 72 | 1013.2 |
| 20260508121029 | 5 | 68 | 4.8 | 11.3 | 0.00 | 0.00 | 0.00 | 75 | 1013.3 |
| 20260508120519 | 4 | 68 | 6.4 | 11.3 | 0.00 | 0.00 | 0.00 | 77 | 1013.3 |
| 20260508120009 | 5 | 68 | 6.4 | 11.3 | 0.00 | 0.00 | 0.00 | 78 | 1013.3 |
| 20260508115459 | 5 | 23 | 6.4 | 12.9 | 0.00 | 0.00 | 0.00 | 79 | 1013.6 |
| 20260508114948 | 4 | 338 | 8.0 | 12.9 | 0.00 | 0.00 | 0.00 | 79 | 1013.7 |
| 20260508113929 | 3 | 113 | 0.0 | 6.4 | 0.00 | 0.00 | 0.00 | 86 | 1013.9 |
| 20260508113418 | 2 | 113 | 1.6 | 6.4 | 0.00 | 0.00 | 0.00 | 86 | 1013.7 |
| 20260508112909 | 2 | 135 | 3.2 | 6.4 | 0.00 | 0.00 | 0.00 | 87 | 1013.6 |
| 20260508112358 | 1 | 158 | 1.6 | 6.4 | 0.00 | 0.00 | 0.00 | 86 | 1013.8 |
| 20260508111848 | 1 | 158 | 3.2 | 6.4 | 0.00 | 0.00 | 0.00 | 86 | 1013.6 |
| 20260508111338 | 1 | 135 | 3.2 | 9.7 | 0.00 | 0.00 | 0.00 | 86 | 1013.6 |
| 20260508110827 | 1 | 135 | 4.8 | 9.7 | 0.00 | 0.00 | 0.00 | 86 | 1013.5 |
| 20260508104747 | 2 | 135 | 4.8 | 6.4 | 0.00 | 0.00 | 0.00 | 83 | 1013.2 |
| 20260508104237 | 2 | 135 | 3.2 | 9.7 | 0.00 | 0.00 | 0.00 | 80 | 1013.4 |
| 20260508103726 | 4 | 0 | 3.2 | 9.7 | 0.00 | 0.00 | 0.00 | 80 | 1012.9 |
| 20260508103217 | 3 | 23 | 4.8 | 9.7 | 0.00 | 0.00 | 0.00 | 81 | 1013.4 |
| 20260508102706 | 3 | 338 | 3.2 | 9.7 | 0.00 | 0.00 | 0.00 | 84 | 1013.2 |
| 20260508101647 | 2 | 180 | 1.6 | 6.4 | 0.00 | 0.00 | 0.00 | 83 | 1013.1 |
| 20260508101138 | 3 | 180 | 1.6 | 9.7 | 0.00 | 0.00 | 0.00 | 81 | 1012.9 |
| 20260508100626 | 3 | 225 | 3.2 | 12.9 | 0.00 | 0.00 | 0.00 | 78 | 1012.9 |
| 20260508100117 | 4 | 293 | 8.0 | 12.9 | 0.00 | 0.00 | 0.00 | 78 | 1012.8 |
| 20260508095606 | 4 | 293 | 6.4 | 11.3 | 0.00 | 0.00 | 0.00 | 79 | 1012.8 |
| 20260508094035 | 4 | 23 | 6.4 | 11.3 | 0.00 | 0.00 | 0.00 | 83 | 1012.1 |
| 20260508093526 | 5 | 23 | 4.8 | 11.3 | 0.00 | 0.00 | 0.00 | 83 | 1012.2 |
| 20260508093015 | 5 | 0 | 3.2 | 9.7 | 0.00 | 0.00 | 0.00 | 84 | 1012.1 |
| 20260508092505 | 5 | 0 | 3.2 | 9.7 | 0.00 | 0.00 | 0.00 | 83 | 1011.9 |
| 20260508091955 | 4 | 0 | 6.4 | 9.7 | 0.00 | 0.00 | 0.00 | 84 | 1012.0 |
| 20260508091445 | 2 | 135 | 3.2 | 9.7 | 0.00 | 0.00 | 0.00 | 83 | 1012.1 |
| 20260508090935 | 3 | 135 | 4.8 | 9.7 | 0.00 | 0.00 | 0.00 | 81 | 1011.9 |
| 20260508090425 | 2 | 135 | 1.6 | 6.4 | 0.00 | 0.00 | 0.00 | 80 | 1012.1 |
| 20260508085922 | 3 | 135 | 3.2 | 6.4 | 0.00 | 0.00 | 0.00 | 81 | 1012.0 |
| 20260508085404 | 3 | 158 | 3.2 | 6.4 | 0.00 | 0.00 | 0.00 | 80 | 1012.0 |
| 20260508084854 | 3 | 158 | 1.6 | 6.4 | 0.00 | 0.00 | 0.00 | 77 | 1011.8 |
| 20260508084344 | 3 | 113 | 3.2 | 6.4 | 0.00 | 0.00 | 0.00 | 76 | 1011.8 |
| 20260508083834 | 2 | 135 | 4.8 | 6.4 | 0.00 | 0.00 | 0.00 | 72 | 1011.7 |
| 20260508083324 | 3 | 135 | 6.4 | 6.4 | 0.00 | 0.00 | 0.00 | 72 | 1011.7 |
| 20260508082814 | 2 | 135 | 4.8 | 6.4 | 0.00 | 0.00 | 0.00 | 71 | 1011.7 |
| 20260508081754 | 3 | 135 | 4.8 | 6.4 | 0.00 | 0.00 | 0.00 | 67 | 1011.5 |
| 20260508081243 | 3 | 135 | 3.2 | 6.4 | 0.00 | 0.00 | 0.00 | 66 | 1011.6 |
| 20260508080733 | 3 | 135 | 6.4 | 11.3 | 0.00 | 0.00 | 0.00 | 65 | 1011.5 |
| 20260508080222 | 3 | 135 | 6.4 | 11.3 | 0.00 | 0.00 | 0.00 | 65 | 1011.8 |
| 20260508075713 | 3 | 158 | 6.4 | 6.4 | 0.00 | 0.00 | 0.00 | 68 | 1011.6 |
| 20260508075203 | 3 | 135 | 4.8 | 9.7 | 0.00 | 0.00 | 0.00 | 65 | 1011.4 |
| 20260508074653 | 3 | 135 | 4.8 | 9.7 | 0.00 | 0.00 | 0.00 | 64 | 1011.5 |
| 20260508074142 | 3 | 135 | 8.0 | 9.7 | 0.00 | 0.00 | 0.00 | 65 | 1011.7 |
| 20260508073633 | 3 | 135 | 4.8 | 11.3 | 0.00 | 0.00 | 0.00 | 63 | 1011.4 |
| 20260508073122 | 3 | 135 | 6.4 | 11.3 | 0.00 | 0.00 | 0.00 | 66 | 1011.5 |
| 20260508072613 | 3 | 158 | 6.4 | 9.7 | 0.00 | 0.00 | 0.00 | 66 | 1011.5 |
| 20260508072102 | 3 | 158 | 6.4 | 6.4 | 0.00 | 0.00 | 0.00 | 66 | 1011.6 |
| 20260508071042 | 3 | 135 | 4.8 | 9.7 | 0.00 | 0.00 | 0.00 | 65 | 1011.3 |
| 20260508070538 | 3 | 158 | 3.2 | 9.7 | 0.00 | 0.00 | 0.00 | 66 | 1011.2 |
| 20260508065512 | 3 | 135 | 6.4 | 6.4 | 0.00 | 0.00 | 0.00 | 67 | 1011.3 |
| 20260508065001 | 4 | 158 | 3.2 | 9.7 | 0.00 | 0.00 | 0.00 | 65 | 1011.2 |
| 20260508064451 | 3 | 158 | 4.8 | 9.7 | 0.00 | 0.00 | 0.00 | 67 | 1011.3 |
| 20260508063942 | 4 | 158 | 6.4 | 9.7 | 0.00 | 0.00 | 0.00 | 64 | 1011.4 |
| 20260508063431 | 4 | 135 | 4.8 | 9.7 | 0.00 | 0.00 | 0.00 | 64 | 1011.3 |
| 20260508062923 | 5 | 135 | 3.2 | 9.7 | 0.00 | 0.00 | 0.00 | 66 | 1011.3 |
| 20260508061649 | 6 | 135 | 3.2 | 0.0 | 0.00 | 0.00 | 0.00 | 61 | 1011.4 |
| 20260508061255 | 6 | 135 | 3.2 | 9.7 | 0.00 | 0.00 | 0.00 | 60 | 1011.3 |
| 20260508055725 | 7 | 158 | 3.2 | 6.4 | 0.00 | 0.00 | 0.00 | 50 | 1011.0 |
| 20260508055215 | 6 | 158 | 3.2 | 6.4 | 0.00 | 0.00 | 0.00 | 54 | 1010.6 |